createdAt,value
2019-03-24T00:00:46.051Z,49.19
2019-03-24T00:01:52.131Z,49.41
2019-03-24T00:02:56.362Z,49.52
2019-03-24T00:04:00.610Z,49.52
2019-03-24T00:05:05.792Z,49.51
2019-03-24T00:06:10.016Z,49.70
2019-03-24T00:07:14.214Z,49.64
2019-03-24T00:08:18.382Z,49.51
2019-03-24T00:09:22.611Z,49.55
2019-03-24T00:10:26.793Z,49.68
2019-03-24T00:11:31.152Z,49.47
2019-03-24T00:12:35.349Z,49.56
2019-03-24T00:13:39.544Z,49.88
2019-03-24T00:14:43.729Z,49.65
2019-03-24T00:15:49.543Z,50.07
2019-03-24T00:16:53.903Z,50.02
2019-03-24T00:17:58.083Z,49.81
2019-03-24T00:19:02.268Z,49.82
2019-03-24T00:20:06.615Z,49.94
2019-03-24T00:21:10.798Z,49.73
2019-03-24T00:22:15.107Z,49.97
2019-03-24T00:23:19.754Z,50.03
2019-03-24T00:24:23.940Z,50.10
2019-03-24T00:25:28.125Z,49.90
2019-03-24T00:26:32.314Z,49.85
2019-03-24T00:27:36.534Z,49.79
2019-03-24T00:28:40.753Z,50.05
2019-03-24T00:29:44.935Z,50.00
2019-03-24T00:30:49.266Z,49.83
2019-03-24T00:31:53.485Z,49.82
2019-03-24T00:32:58.010Z,50.04
2019-03-24T00:34:02.262Z,49.99
2019-03-24T00:35:06.912Z,49.98
2019-03-24T00:36:11.089Z,50.10
2019-03-24T00:37:15.273Z,50.12
2019-03-24T00:38:19.473Z,50.06
2019-03-24T00:39:23.654Z,50.08
2019-03-24T00:40:27.832Z,50.07
2019-03-24T00:41:32.077Z,50.26
2019-03-24T00:42:36.257Z,50.16
2019-03-24T00:43:40.462Z,50.12
2019-03-24T00:44:44.666Z,50.13
2019-03-24T00:45:48.924Z,50.10
2019-03-24T00:46:53.135Z,50.06
2019-03-24T00:47:57.315Z,49.94
2019-03-24T00:49:01.617Z,50.04
2019-03-24T00:50:06.633Z,49.97
2019-03-24T00:51:10.880Z,50.03
2019-03-24T00:52:15.101Z,49.96
2019-03-24T00:53:20.087Z,49.96
2019-03-24T00:54:24.301Z,50.13
2019-03-24T00:55:28.581Z,50.14
2019-03-24T00:56:32.762Z,50.14
2019-03-24T00:57:37.752Z,50.21
2019-03-24T00:58:43.210Z,50.19
2019-03-24T00:59:47.452Z,50.04
2019-03-24T01:00:51.940Z,50.13
2019-03-24T01:01:56.126Z,50.06
2019-03-24T01:03:00.308Z,50.02
2019-03-24T01:04:04.993Z,50.15
2019-03-24T01:05:09.214Z,50.09
2019-03-24T01:06:14.712Z,50.24
2019-03-24T01:07:19.046Z,50.24
2019-03-24T01:08:24.266Z,50.26
2019-03-24T01:09:28.456Z,50.21
2019-03-24T01:10:33.733Z,50.09
2019-03-24T01:11:37.936Z,50.37
2019-03-24T01:12:42.113Z,50.48
2019-03-24T01:13:46.368Z,50.33
2019-03-24T01:14:50.551Z,50.46
2019-03-24T01:15:54.855Z,50.45
2019-03-24T01:16:59.060Z,50.44
2019-03-24T01:18:03.315Z,50.48
2019-03-24T01:19:07.493Z,50.38
2019-03-24T01:20:11.674Z,50.45
2019-03-24T01:21:15.926Z,50.52
2019-03-24T01:22:20.153Z,50.51
2019-03-24T01:23:24.408Z,50.44
2019-03-24T01:24:28.619Z,50.40
2019-03-24T01:25:33.152Z,50.38
2019-03-24T01:26:37.654Z,50.57
2019-03-24T01:27:41.838Z,50.64
2019-03-24T01:28:47.644Z,50.74
2019-03-24T01:29:51.826Z,50.71
2019-03-24T01:30:56.013Z,50.51
2019-03-24T01:32:00.279Z,50.63
2019-03-24T01:33:04.460Z,50.74
2019-03-24T01:34:08.648Z,50.57
2019-03-24T01:35:12.824Z,50.95
2019-03-24T01:36:17.099Z,50.91
2019-03-24T01:37:21.418Z,51.01
2019-03-24T01:38:25.610Z,50.85
2019-03-24T01:39:29.795Z,50.92
2019-03-24T01:40:33.990Z,50.91
2019-03-24T01:41:38.173Z,51.11
2019-03-24T01:42:42.379Z,51.11
2019-03-24T01:43:46.589Z,51.00
2019-03-24T01:44:50.771Z,50.99
2019-03-24T01:45:58.884Z,51.03
2019-03-24T01:47:00.830Z,51.15
2019-03-24T01:48:06.124Z,51.07
2019-03-24T01:49:10.374Z,51.28
2019-03-24T01:50:14.558Z,51.36
2019-03-24T01:51:18.845Z,51.25
2019-03-24T01:52:23.027Z,51.21
2019-03-24T01:53:27.239Z,51.28
2019-03-24T01:54:31.414Z,51.30
2019-03-24T01:55:35.615Z,51.25
2019-03-24T01:56:39.792Z,51.11
2019-03-24T01:57:43.974Z,51.32
2019-03-24T01:58:48.214Z,51.19
2019-03-24T01:59:52.433Z,51.41
2019-03-24T02:00:56.615Z,51.32
2019-03-24T02:02:00.837Z,51.25
2019-03-24T02:03:05.015Z,51.52
2019-03-24T02:04:09.219Z,51.44
2019-03-24T02:05:13.455Z,51.29
2019-03-24T02:06:19.424Z,51.23
2019-03-24T02:07:23.616Z,51.29
2019-03-24T02:08:27.812Z,51.48
2019-03-24T02:09:32.043Z,51.41
2019-03-24T02:10:36.271Z,51.40
2019-03-24T02:11:40.451Z,51.36
2019-03-24T02:12:44.729Z,51.51
2019-03-24T02:13:48.978Z,51.69
2019-03-24T02:14:53.483Z,51.61
2019-03-24T02:15:57.793Z,51.69
2019-03-24T02:17:01.974Z,51.43
2019-03-24T02:18:06.312Z,51.39
2019-03-24T02:19:10.499Z,51.54
2019-03-24T02:20:14.765Z,51.58
2019-03-24T02:21:18.917Z,51.43
2019-03-24T02:22:24.071Z,51.43
2019-03-24T02:23:28.255Z,51.40
2019-03-24T02:24:32.506Z,51.41
2019-03-24T02:25:36.802Z,51.37
2019-03-24T02:26:40.982Z,51.27
2019-03-24T02:27:45.163Z,51.16
2019-03-24T02:28:49.342Z,51.19
2019-03-24T02:29:53.531Z,51.01
2019-03-24T02:30:58.890Z,51.10
2019-03-24T02:32:03.048Z,51.01
2019-03-24T02:33:07.234Z,50.87
2019-03-24T02:34:11.406Z,50.96
2019-03-24T02:35:15.591Z,50.86
2019-03-24T02:36:19.791Z,50.96
2019-03-24T02:37:23.971Z,51.06
2019-03-24T02:38:28.475Z,50.95
2019-03-24T02:39:32.656Z,51.10
2019-03-24T02:40:36.944Z,51.12
2019-03-24T02:41:41.172Z,51.14
2019-03-24T02:42:46.413Z,51.24
2019-03-24T02:43:50.678Z,51.20
2019-03-24T02:44:54.849Z,51.28
2019-03-24T02:45:59.104Z,51.20
2019-03-24T02:47:03.495Z,51.54
2019-03-24T02:48:07.725Z,51.54
2019-03-24T02:49:11.908Z,51.30
2019-03-24T02:50:16.163Z,51.40
2019-03-24T02:51:20.383Z,51.68
2019-03-24T02:52:24.605Z,51.72
2019-03-24T02:53:28.786Z,51.75
2019-03-24T02:54:32.981Z,51.71
2019-03-24T02:55:37.148Z,51.85
2019-03-24T02:56:41.328Z,51.84
2019-03-24T02:57:45.549Z,51.87
2019-03-24T02:58:49.715Z,51.87
2019-03-24T02:59:53.969Z,51.78
2019-03-24T03:00:58.148Z,51.92
2019-03-24T03:02:02.327Z,51.87
2019-03-24T03:03:06.536Z,51.98
2019-03-24T03:04:10.712Z,51.99
2019-03-24T03:05:14.989Z,51.96
2019-03-24T03:06:19.177Z,52.11
2019-03-24T03:07:23.420Z,52.23
2019-03-24T03:08:27.621Z,52.19
2019-03-24T03:09:31.813Z,52.21
2019-03-24T03:10:36.355Z,52.28
2019-03-24T03:11:40.535Z,52.30
2019-03-24T03:12:47.746Z,52.36
2019-03-24T03:13:51.564Z,52.50
2019-03-24T03:14:55.751Z,52.30
2019-03-24T03:15:59.960Z,52.35
2019-03-24T03:17:04.484Z,52.35
2019-03-24T03:18:08.663Z,52.55
2019-03-24T03:19:12.840Z,52.37
2019-03-24T03:20:17.023Z,52.50
2019-03-24T03:21:21.242Z,52.51
2019-03-24T03:22:25.493Z,52.68
2019-03-24T03:23:29.677Z,52.73
2019-03-24T03:24:33.860Z,52.63
2019-03-24T03:25:38.035Z,52.80
2019-03-24T03:26:42.263Z,53.06
2019-03-24T03:27:46.442Z,52.90
2019-03-24T03:28:52.264Z,52.93
2019-03-24T03:30:00.883Z,53.02
2019-03-24T03:31:07.064Z,52.84
2019-03-24T03:32:11.757Z,52.77
2019-03-24T03:33:15.894Z,52.70
2019-03-24T03:34:20.071Z,52.70
2019-03-24T03:35:24.253Z,52.81
2019-03-24T03:36:28.441Z,53.05
2019-03-24T03:37:32.665Z,52.82
2019-03-24T03:38:36.892Z,53.04
2019-03-24T03:39:41.081Z,53.03
2019-03-24T03:40:45.305Z,52.98
2019-03-24T03:41:49.483Z,52.93
2019-03-24T03:42:53.777Z,53.03
2019-03-24T03:47:59.571Z,53.33
2019-03-24T03:49:09.461Z,53.47
2019-03-24T03:50:17.359Z,53.48
2019-03-24T03:51:22.568Z,53.46
2019-03-24T03:52:26.780Z,53.39
2019-03-24T03:53:31.976Z,53.33
2019-03-24T03:54:36.143Z,53.26
2019-03-24T03:55:40.319Z,53.31
2019-03-24T03:56:44.504Z,53.50
2019-03-24T03:57:48.675Z,53.60
2019-03-24T03:58:52.905Z,53.44
2019-03-24T03:59:57.213Z,53.57
2019-03-24T04:01:01.390Z,53.59
2019-03-24T04:02:05.663Z,53.49
2019-03-24T04:03:09.843Z,53.84
2019-03-24T04:04:14.619Z,53.67
2019-03-24T04:05:18.833Z,53.52
2019-03-24T04:06:23.012Z,53.54
2019-03-24T04:07:27.205Z,53.54
2019-03-24T04:08:31.503Z,53.57
2019-03-24T04:09:35.699Z,53.45
2019-03-24T04:10:40.014Z,53.52
2019-03-24T04:11:44.205Z,53.57
2019-03-24T04:12:48.526Z,53.45
2019-03-24T04:13:52.708Z,53.52
2019-03-24T04:14:56.962Z,53.44
2019-03-24T04:16:01.212Z,53.63
2019-03-24T04:17:07.462Z,53.72
2019-03-24T04:18:11.293Z,53.89
2019-03-24T04:19:15.463Z,53.72
2019-03-24T04:20:19.675Z,53.90
2019-03-24T04:21:24.164Z,53.99
2019-03-24T04:22:28.399Z,54.05
2019-03-24T04:23:32.584Z,54.01
2019-03-24T04:24:36.769Z,54.13
2019-03-24T04:25:40.957Z,53.99
2019-03-24T04:26:47.098Z,54.05
2019-03-24T04:27:51.282Z,54.08
2019-03-24T04:28:55.464Z,54.14
2019-03-24T04:29:59.658Z,54.31
2019-03-24T04:31:04.064Z,54.27
2019-03-24T04:32:08.273Z,54.24
2019-03-24T04:33:12.451Z,54.81
2019-03-24T04:34:16.644Z,54.98
2019-03-24T04:35:20.824Z,54.94
2019-03-24T04:36:25.006Z,54.75
2019-03-24T04:37:29.574Z,54.80
2019-03-24T04:38:33.751Z,54.68
2019-03-24T04:39:37.931Z,54.60
2019-03-24T04:40:42.123Z,54.68
2019-03-24T04:41:46.291Z,54.83
2019-03-24T04:42:50.536Z,54.62
2019-03-24T04:43:54.727Z,54.78
2019-03-24T04:44:58.943Z,54.66
2019-03-24T04:46:03.130Z,54.91
2019-03-24T04:47:16.287Z,54.83
2019-03-24T04:48:13.279Z,54.81
2019-03-24T04:49:17.456Z,54.94
2019-03-24T04:50:21.636Z,55.05
2019-03-24T04:51:25.814Z,54.99
2019-03-24T04:52:29.994Z,54.83
2019-03-24T04:53:34.822Z,54.98
2019-03-24T04:54:39.006Z,55.01
2019-03-24T04:55:43.294Z,55.01
2019-03-24T04:56:47.467Z,54.99
2019-03-24T04:57:51.647Z,54.96
2019-03-24T04:58:55.859Z,55.17
2019-03-24T05:00:00.054Z,55.28
2019-03-24T05:01:04.336Z,55.20
2019-03-24T05:02:08.514Z,55.12
2019-03-24T05:03:12.707Z,55.07
2019-03-24T05:04:16.974Z,54.99
2019-03-24T05:05:21.225Z,54.90
2019-03-24T05:06:25.408Z,54.87
2019-03-24T05:07:29.634Z,54.91
2019-03-24T05:08:33.824Z,54.85
2019-03-24T05:09:38.259Z,54.71
2019-03-24T05:10:42.426Z,54.64
2019-03-24T05:11:46.689Z,54.70
2019-03-24T05:12:50.926Z,54.61
2019-03-24T05:13:55.108Z,54.59
2019-03-24T05:14:59.296Z,54.60
2019-03-24T05:16:03.480Z,54.87
2019-03-24T05:17:07.684Z,54.99
2019-03-24T05:18:12.066Z,55.01
2019-03-24T05:19:16.318Z,55.06
2019-03-24T05:20:20.662Z,55.09
2019-03-24T05:21:25.090Z,55.17
2019-03-24T05:22:29.343Z,55.01
2019-03-24T05:23:33.551Z,55.11
2019-03-24T05:24:37.802Z,55.28
2019-03-24T05:25:42.006Z,55.32
2019-03-24T05:26:46.186Z,55.18
2019-03-24T05:27:50.398Z,55.48
2019-03-24T05:28:54.616Z,55.56
2019-03-24T05:29:58.790Z,55.70
2019-03-24T05:31:02.973Z,55.61
2019-03-24T05:32:07.149Z,55.45
2019-03-24T05:33:11.358Z,55.39
2019-03-24T05:34:15.573Z,55.49
2019-03-24T05:35:19.806Z,55.53
2019-03-24T05:36:24.053Z,55.50
2019-03-24T05:37:29.205Z,55.42
2019-03-24T05:38:37.967Z,55.50
2019-03-24T05:39:41.355Z,55.36
2019-03-24T05:40:45.534Z,55.49
2019-03-24T05:41:49.767Z,55.65
2019-03-24T05:42:54.899Z,55.60
2019-03-24T05:43:59.141Z,55.61
2019-03-24T05:45:08.854Z,55.55
2019-03-24T05:46:13.057Z,55.67
2019-03-24T05:47:17.231Z,55.74
2019-03-24T05:48:21.440Z,55.69
2019-03-24T05:49:25.596Z,55.71
2019-03-24T05:50:29.803Z,55.71
2019-03-24T05:51:34.074Z,55.89
2019-03-24T05:52:38.270Z,55.71
2019-03-24T05:53:44.085Z,55.85
2019-03-24T05:54:49.920Z,55.70
2019-03-24T05:55:54.105Z,55.85
2019-03-24T05:56:58.359Z,55.68
2019-03-24T05:58:02.540Z,55.82
2019-03-24T05:59:06.786Z,55.75
2019-03-24T06:00:12.214Z,55.73
2019-03-24T06:01:16.420Z,55.67
2019-03-24T06:02:21.670Z,55.69
2019-03-24T06:03:25.858Z,55.89
2019-03-24T06:04:30.047Z,55.84
2019-03-24T06:05:34.338Z,56.11
2019-03-24T06:06:40.702Z,56.20
2019-03-24T06:07:44.972Z,56.25
2019-03-24T06:08:49.162Z,56.30
2019-03-24T06:09:56.130Z,56.27
2019-03-24T06:11:00.359Z,56.30
2019-03-24T06:12:04.738Z,56.29
2019-03-24T06:13:09.289Z,56.43
2019-03-24T06:14:14.032Z,56.35
2019-03-24T06:15:18.209Z,56.58
2019-03-24T06:16:22.418Z,56.56
2019-03-24T06:17:26.626Z,56.46
2019-03-24T06:18:30.806Z,56.56
2019-03-24T06:19:34.985Z,56.54
2019-03-24T06:20:39.633Z,56.45
2019-03-24T06:21:43.893Z,56.37
2019-03-24T06:22:48.259Z,56.46
2019-03-24T06:23:52.706Z,56.44
2019-03-24T06:24:56.888Z,56.39
2019-03-24T06:26:01.066Z,56.34
2019-03-24T06:27:05.249Z,56.26
2019-03-24T06:28:09.452Z,56.29
2019-03-24T06:29:13.625Z,56.17
2019-03-24T06:30:17.820Z,56.23
2019-03-24T06:31:21.991Z,56.36
2019-03-24T06:32:26.170Z,56.36
2019-03-24T06:33:30.388Z,56.29
2019-03-24T06:34:34.589Z,56.36
2019-03-24T06:35:41.267Z,56.35
2019-03-24T06:36:45.446Z,56.37
2019-03-24T06:37:49.699Z,56.45
2019-03-24T06:38:53.935Z,56.71
2019-03-24T06:39:58.141Z,56.60
2019-03-24T06:41:03.070Z,56.59
2019-03-24T06:42:07.341Z,56.62
2019-03-24T06:43:11.555Z,56.69
2019-03-24T06:44:16.861Z,56.60
2019-03-24T06:45:28.371Z,56.48
2019-03-24T06:46:28.979Z,56.49
2019-03-24T06:47:33.154Z,56.43
2019-03-24T06:48:37.334Z,56.39
2019-03-24T06:49:45.887Z,56.42
2019-03-24T06:50:50.109Z,57.07
2019-03-24T06:51:54.574Z,56.73
2019-03-24T06:52:58.787Z,56.72
2019-03-24T06:54:03.010Z,56.93
2019-03-24T06:55:08.408Z,56.80
2019-03-24T06:56:12.747Z,56.95
2019-03-24T06:57:17.090Z,57.04
2019-03-24T06:58:21.285Z,56.85
2019-03-24T06:59:25.553Z,56.83
2019-03-24T07:00:29.768Z,56.72
2019-03-24T07:01:34.051Z,56.63
2019-03-24T07:02:38.230Z,56.77
2019-03-24T07:03:42.615Z,56.56
2019-03-24T07:04:46.803Z,56.53
2019-03-24T07:05:51.054Z,56.32
2019-03-24T07:06:55.703Z,56.56
2019-03-24T07:07:59.999Z,56.50
2019-03-24T07:09:06.203Z,56.44
2019-03-24T07:10:11.114Z,56.43
2019-03-24T07:11:15.369Z,56.55
2019-03-24T07:12:21.230Z,56.45
2019-03-24T07:13:25.514Z,56.30
2019-03-24T07:14:30.437Z,56.26
2019-03-24T07:15:34.618Z,55.99
2019-03-24T07:16:38.800Z,55.97
2019-03-24T07:17:43.006Z,55.95
2019-03-24T07:18:47.187Z,55.76
2019-03-24T07:19:51.371Z,55.57
2019-03-24T07:20:55.678Z,55.66
2019-03-24T07:22:01.041Z,55.45
2019-03-24T07:23:05.311Z,55.38
2019-03-24T07:24:09.586Z,55.40
2019-03-24T07:25:13.795Z,55.40
2019-03-24T07:26:17.977Z,55.43
2019-03-24T07:27:22.163Z,55.51
2019-03-24T07:28:26.342Z,55.30
2019-03-24T07:29:30.535Z,55.39
2019-03-24T07:30:34.840Z,55.28
2019-03-24T07:31:39.023Z,54.89
2019-03-24T07:32:43.213Z,54.67
2019-03-24T07:33:47.458Z,54.67
2019-03-24T07:34:51.641Z,54.16
2019-03-24T07:35:55.859Z,54.53
2019-03-24T07:37:01.083Z,54.09
2019-03-24T07:38:05.399Z,54.09
2019-03-24T07:39:09.647Z,54.11
2019-03-24T07:40:13.898Z,53.70
2019-03-24T07:41:18.123Z,53.44
2019-03-24T07:42:22.309Z,53.52
2019-03-24T07:43:26.594Z,53.29
2019-03-24T07:44:30.766Z,52.91
2019-03-24T07:45:36.124Z,53.07
2019-03-24T07:46:40.333Z,53.03
2019-03-24T07:47:44.539Z,52.93
2019-03-24T07:48:48.786Z,52.84
2019-03-24T07:49:54.061Z,52.65
2019-03-24T07:50:58.530Z,52.65
2019-03-24T07:52:02.806Z,52.67
2019-03-24T07:53:06.983Z,52.62
2019-03-24T07:54:11.214Z,52.58
2019-03-24T07:55:15.397Z,52.27
2019-03-24T07:56:22.491Z,52.18
2019-03-24T07:57:28.638Z,52.03
2019-03-24T07:58:32.964Z,51.74
2019-03-24T07:59:37.145Z,51.57
2019-03-24T08:00:41.388Z,51.78
2019-03-24T08:01:45.570Z,51.89
2019-03-24T08:02:52.478Z,51.60
2019-03-24T08:03:56.874Z,51.30
2019-03-24T08:05:01.063Z,50.96
2019-03-24T08:06:05.311Z,50.27
2019-03-24T08:07:09.513Z,50.42
2019-03-24T08:08:13.689Z,50.21
2019-03-24T08:09:17.970Z,50.10
2019-03-24T08:10:22.150Z,49.62
2019-03-24T08:11:26.402Z,49.09
2019-03-24T08:12:30.582Z,48.99
2019-03-24T08:13:34.778Z,49.07
2019-03-24T08:14:39.000Z,48.94
2019-03-24T08:15:43.178Z,48.77
2019-03-24T08:16:47.362Z,48.25
2019-03-24T08:17:51.584Z,47.94
2019-03-24T08:18:55.763Z,47.80
2019-03-24T08:19:59.990Z,48.12
2019-03-24T08:21:05.080Z,47.76
2019-03-24T08:22:09.282Z,47.47
2019-03-24T08:23:13.456Z,47.30
2019-03-24T08:24:17.674Z,47.28
2019-03-24T08:25:21.892Z,47.46
2019-03-24T08:26:26.070Z,46.96
2019-03-24T08:27:32.766Z,46.99
2019-03-24T08:28:37.138Z,46.91
2019-03-24T08:29:41.330Z,46.98
2019-03-24T08:30:45.558Z,46.72
2019-03-24T08:31:49.748Z,46.41
2019-03-24T08:32:53.994Z,46.24
2019-03-24T08:33:58.170Z,46.40
2019-03-24T08:35:02.485Z,46.31
2019-03-24T08:36:06.661Z,46.21
2019-03-24T08:37:11.300Z,45.92
2019-03-24T08:38:16.540Z,45.50
2019-03-24T08:39:20.719Z,45.25
2019-03-24T08:40:24.898Z,45.58
2019-03-24T08:41:29.079Z,45.52
2019-03-24T08:42:33.294Z,45.39
2019-03-24T08:43:37.473Z,45.67
2019-03-24T08:44:41.731Z,45.66
2019-03-24T08:45:45.994Z,45.62
2019-03-24T08:46:50.176Z,45.94
2019-03-24T08:47:54.855Z,45.75
2019-03-24T08:48:59.103Z,44.61
2019-03-24T08:50:03.459Z,44.29
2019-03-24T08:51:07.654Z,43.78
2019-03-24T08:52:11.835Z,43.67
2019-03-24T08:53:16.064Z,43.30
2019-03-24T08:54:20.289Z,43.47
2019-03-24T08:55:24.418Z,43.29
2019-03-24T08:56:28.598Z,43.44
2019-03-24T08:57:32.778Z,42.89
2019-03-24T08:58:36.984Z,42.86
2019-03-24T08:59:41.493Z,42.68
2019-03-24T09:00:45.772Z,42.39
2019-03-24T09:01:49.941Z,41.98
2019-03-24T09:02:54.122Z,41.49
2019-03-24T09:03:58.291Z,41.59
2019-03-24T09:05:02.499Z,41.25
2019-03-24T09:06:06.686Z,41.05
2019-03-24T09:07:10.850Z,40.20
2019-03-24T09:08:15.057Z,40.04
2019-03-24T09:09:19.212Z,39.95
2019-03-24T09:10:23.488Z,39.52
2019-03-24T09:11:31.549Z,39.49
2019-03-24T09:12:33.605Z,39.30
2019-03-24T09:13:37.790Z,39.08
2019-03-24T09:14:42.041Z,39.12
2019-03-24T09:15:46.236Z,39.19
2019-03-24T09:16:50.446Z,38.77
2019-03-24T09:17:54.648Z,38.86
2019-03-24T09:18:58.834Z,37.84
2019-03-24T09:20:03.045Z,37.59
2019-03-24T09:21:07.250Z,37.66
2019-03-24T09:22:11.476Z,37.44
2019-03-24T09:23:15.670Z,37.11
2019-03-24T09:24:19.866Z,36.75
2019-03-24T09:25:24.067Z,36.70
2019-03-24T09:26:28.238Z,36.18
2019-03-24T09:27:32.443Z,35.75
2019-03-24T09:28:36.620Z,35.67
2019-03-24T09:29:40.804Z,35.46
2019-03-24T09:30:44.982Z,35.64
2019-03-24T09:31:49.191Z,35.66
2019-03-24T09:32:53.366Z,35.65
2019-03-24T09:33:57.575Z,35.40
2019-03-24T09:35:01.755Z,35.41
2019-03-24T09:36:06.007Z,35.37
2019-03-24T09:37:11.227Z,34.97
2019-03-24T09:38:15.436Z,34.67
2019-03-24T09:39:19.617Z,34.86
2019-03-24T09:40:30.114Z,34.59
2019-03-24T09:41:35.396Z,33.91
2019-03-24T09:42:39.615Z,33.93
2019-03-24T09:43:43.797Z,33.85
2019-03-24T09:44:47.984Z,34.01
2019-03-24T09:45:52.168Z,34.51
2019-03-24T09:46:56.350Z,34.41
2019-03-24T09:48:00.827Z,33.99
2019-03-24T09:49:05.111Z,33.98
2019-03-24T09:50:09.290Z,33.71
2019-03-24T09:51:13.471Z,33.67
2019-03-24T09:52:18.622Z,33.97
2019-03-24T09:53:22.839Z,33.98
2019-03-24T09:54:27.115Z,34.32
2019-03-24T09:55:31.296Z,34.48
2019-03-24T09:56:35.545Z,34.38
2019-03-24T09:57:39.723Z,34.46
2019-03-24T09:58:43.927Z,34.24
2019-03-24T09:59:48.137Z,34.14
2019-03-24T10:00:52.374Z,34.22
2019-03-24T10:01:56.561Z,34.06
2019-03-24T10:03:01.586Z,34.10
2019-03-24T10:04:05.763Z,34.19
2019-03-24T10:05:09.986Z,34.39
2019-03-24T10:06:14.164Z,34.07
2019-03-24T10:07:18.377Z,34.32
2019-03-24T10:08:22.598Z,34.19
2019-03-24T10:09:26.803Z,34.07
2019-03-24T10:10:31.029Z,33.81
2019-03-24T10:11:35.205Z,33.95
2019-03-24T10:12:39.457Z,34.10
2019-03-24T10:13:43.640Z,34.16
2019-03-24T10:14:47.821Z,34.37
2019-03-24T10:15:52.094Z,34.52
2019-03-24T10:16:56.296Z,34.48
2019-03-24T10:18:00.474Z,34.84
2019-03-24T10:19:13.514Z,35.30
2019-03-24T10:20:10.585Z,34.91
2019-03-24T10:21:14.790Z,35.16
2019-03-24T10:22:18.967Z,35.42
2019-03-24T10:23:23.152Z,35.37
2019-03-24T10:24:27.325Z,35.06
2019-03-24T10:25:31.634Z,35.03
2019-03-24T10:26:35.818Z,35.01
2019-03-24T10:27:39.998Z,34.11
2019-03-24T10:28:44.183Z,34.03
2019-03-24T10:29:48.366Z,33.80
2019-03-24T10:30:52.595Z,33.78
2019-03-24T10:31:56.780Z,33.49
2019-03-24T10:33:00.968Z,33.57
2019-03-24T10:34:05.159Z,33.50
2019-03-24T10:35:10.014Z,33.36
2019-03-24T10:36:14.314Z,33.02
2019-03-24T10:37:18.498Z,32.75
2019-03-24T10:38:22.680Z,32.70
2019-03-24T10:39:26.866Z,32.30
2019-03-24T10:40:31.377Z,31.62
2019-03-24T10:41:36.060Z,31.57
2019-03-24T10:42:40.243Z,31.73
2019-03-24T10:43:44.437Z,31.47
2019-03-24T10:44:48.762Z,31.56
2019-03-24T10:45:53.002Z,31.13
2019-03-24T10:46:57.244Z,31.25
2019-03-24T10:48:01.424Z,31.31
2019-03-24T10:49:05.680Z,31.09
2019-03-24T10:50:10.018Z,30.79
2019-03-24T10:51:14.203Z,30.70
2019-03-24T10:52:18.413Z,30.69
2019-03-24T10:53:22.599Z,30.88
2019-03-24T10:54:26.818Z,30.61
2019-03-24T10:55:30.986Z,30.89
2019-03-24T10:56:35.170Z,31.28
2019-03-24T10:57:39.491Z,30.67
2019-03-24T10:58:43.681Z,30.68
2019-03-24T10:59:47.856Z,30.54
2019-03-24T11:00:52.057Z,31.08
2019-03-24T11:01:56.238Z,30.91
2019-03-24T11:03:00.486Z,30.53
2019-03-24T11:04:04.653Z,30.35
2019-03-24T11:05:08.817Z,29.78
2019-03-24T11:06:12.994Z,29.99
2019-03-24T11:07:17.178Z,29.96
2019-03-24T11:08:21.395Z,30.16
2019-03-24T11:09:25.571Z,29.91
2019-03-24T11:10:29.808Z,29.81
2019-03-24T11:11:33.994Z,29.89
2019-03-24T11:12:38.165Z,30.05
2019-03-24T11:13:42.449Z,29.48
2019-03-24T11:14:47.322Z,29.53
2019-03-24T11:15:51.521Z,29.86
2019-03-24T11:16:55.693Z,29.60
2019-03-24T11:17:59.866Z,29.33
2019-03-24T11:19:04.608Z,29.62
2019-03-24T11:20:08.747Z,29.79
2019-03-24T11:21:12.931Z,29.81
2019-03-24T11:22:17.178Z,29.95
2019-03-24T11:23:21.406Z,30.37
2019-03-24T11:24:25.580Z,30.51
2019-03-24T11:25:29.753Z,30.61
2019-03-24T11:26:33.939Z,30.09
2019-03-24T11:27:38.391Z,30.43
2019-03-24T11:28:42.575Z,30.57
2019-03-24T11:29:46.784Z,30.52
2019-03-24T11:30:50.963Z,30.57
2019-03-24T11:31:55.215Z,30.56
2019-03-24T11:32:59.399Z,30.64
2019-03-24T11:34:04.650Z,30.35
2019-03-24T11:35:09.660Z,30.11
2019-03-24T11:36:13.855Z,30.23
2019-03-24T11:37:18.043Z,30.42
2019-03-24T11:38:22.259Z,30.68
2019-03-24T11:39:26.442Z,30.43
2019-03-24T11:40:30.654Z,30.78
2019-03-24T11:41:34.837Z,30.70
2019-03-24T11:42:39.029Z,31.14
2019-03-24T11:43:43.203Z,31.21
2019-03-24T11:44:47.387Z,31.54
2019-03-24T11:45:51.695Z,31.61
2019-03-24T11:46:55.947Z,31.70
2019-03-24T11:48:00.132Z,31.50
2019-03-24T11:49:04.810Z,31.50
2019-03-24T11:50:08.990Z,31.68
2019-03-24T11:51:13.199Z,31.81
2019-03-24T11:52:17.380Z,32.00
2019-03-24T11:53:21.583Z,32.34
2019-03-24T11:54:25.746Z,32.56
2019-03-24T11:55:29.932Z,32.66
2019-03-24T11:56:34.431Z,32.63
2019-03-24T11:57:38.615Z,32.71
2019-03-24T11:58:42.822Z,32.86
2019-03-24T11:59:46.977Z,33.11
2019-03-24T12:00:51.158Z,33.31
2019-03-24T12:01:55.369Z,33.12
2019-03-24T12:02:59.550Z,33.16
2019-03-24T12:04:03.806Z,33.21
2019-03-24T12:05:07.988Z,33.40
2019-03-24T12:06:14.843Z,33.46
2019-03-24T12:07:20.503Z,33.65
2019-03-24T12:08:24.732Z,33.82
2019-03-24T12:09:29.139Z,33.60
2019-03-24T12:10:33.325Z,33.72
2019-03-24T12:11:37.506Z,34.07
2019-03-24T12:12:41.799Z,34.01
2019-03-24T12:13:45.977Z,34.05
2019-03-24T12:14:50.161Z,34.11
2019-03-24T12:15:54.365Z,34.21
2019-03-24T12:16:58.548Z,34.40
2019-03-24T12:18:02.834Z,34.43
2019-03-24T12:19:07.058Z,34.34
2019-03-24T12:20:11.243Z,34.46
2019-03-24T12:21:15.425Z,34.62
2019-03-24T12:22:19.604Z,34.62
2019-03-24T12:23:23.810Z,34.51
2019-03-24T12:24:28.278Z,34.52
2019-03-24T12:25:32.458Z,34.52
2019-03-24T12:26:36.653Z,34.79
2019-03-24T12:27:40.830Z,34.99
2019-03-24T12:28:45.017Z,35.02
2019-03-24T12:29:49.323Z,34.93
2019-03-24T12:30:53.507Z,35.06
2019-03-24T12:31:57.683Z,35.09
2019-03-24T12:33:01.862Z,34.89
2019-03-24T12:34:06.046Z,35.11
2019-03-24T12:35:10.260Z,35.23
2019-03-24T12:36:14.443Z,35.06
2019-03-24T12:37:18.627Z,35.17
2019-03-24T12:38:22.805Z,35.11
2019-03-24T12:39:27.013Z,35.02
2019-03-24T12:40:31.257Z,35.03
2019-03-24T12:41:35.412Z,34.84
2019-03-24T12:42:39.601Z,34.62
2019-03-24T12:43:43.788Z,34.75
2019-03-24T12:44:47.959Z,34.75
2019-03-24T12:45:52.253Z,34.75
2019-03-24T12:46:56.429Z,34.61
2019-03-24T12:48:00.675Z,34.80
2019-03-24T12:49:04.928Z,34.74
2019-03-24T12:50:10.455Z,34.70
2019-03-24T12:51:14.715Z,34.55
2019-03-24T12:52:18.911Z,34.76
2019-03-24T12:53:23.421Z,34.75
2019-03-24T12:54:27.600Z,34.77
2019-03-24T12:55:31.787Z,34.84
2019-03-24T12:56:36.016Z,34.46
2019-03-24T12:57:40.211Z,34.39
2019-03-24T12:58:44.385Z,34.51
2019-03-24T12:59:48.566Z,34.51
2019-03-24T13:00:52.748Z,34.54
2019-03-24T13:01:57.044Z,34.67
2019-03-24T13:03:01.293Z,35.00
2019-03-24T13:04:05.475Z,35.00
2019-03-24T13:05:09.649Z,34.39
2019-03-24T13:06:13.839Z,34.54
2019-03-24T13:07:18.115Z,34.70
2019-03-24T13:08:22.416Z,34.22
2019-03-24T13:09:26.606Z,34.73
2019-03-24T13:10:30.817Z,34.56
2019-03-24T13:11:34.995Z,34.48
2019-03-24T13:12:39.338Z,34.60
2019-03-24T13:13:43.519Z,34.54
2019-03-24T13:14:49.446Z,34.29
2019-03-24T13:15:53.824Z,34.21
2019-03-24T13:16:57.958Z,33.92
2019-03-24T13:18:02.325Z,33.89
2019-03-24T13:19:06.519Z,34.01
2019-03-24T13:20:19.752Z,33.88
2019-03-24T13:21:16.808Z,33.68
2019-03-24T13:22:20.990Z,33.81
2019-03-24T13:23:25.219Z,33.72
2019-03-24T13:24:29.398Z,34.00
2019-03-24T13:25:36.192Z,34.16
2019-03-24T13:26:39.537Z,34.27
2019-03-24T13:27:43.719Z,34.08
2019-03-24T13:28:47.990Z,34.02
2019-03-24T13:29:52.178Z,34.17
2019-03-24T13:30:56.432Z,34.50
2019-03-24T13:32:00.697Z,34.35
2019-03-24T13:33:04.882Z,34.02
2019-03-24T13:34:09.155Z,34.02
2019-03-24T13:35:14.402Z,34.10
2019-03-24T13:36:18.588Z,33.90
2019-03-24T13:37:22.773Z,33.83
2019-03-24T13:38:27.066Z,33.53
2019-03-24T13:39:31.273Z,33.50
2019-03-24T13:40:35.455Z,33.49
2019-03-24T13:41:39.705Z,33.59
2019-03-24T13:42:43.882Z,33.83
2019-03-24T13:43:48.326Z,33.79
2019-03-24T13:44:52.510Z,33.36
2019-03-24T13:45:57.407Z,33.53
2019-03-24T13:47:01.705Z,33.29
2019-03-24T13:48:06.962Z,33.74
2019-03-24T13:49:11.934Z,33.80
2019-03-24T13:50:16.107Z,33.71
2019-03-24T13:51:20.287Z,33.58
2019-03-24T13:52:24.811Z,33.43
2019-03-24T13:53:28.994Z,33.75